Time;durP1;ratioP1;P1;durP2;ratioP2;P2;SDS_P1;SDS_P2;PMS_P1;PMS_P2;Temp;Humidity;BMP_temperature;BMP_pressure;BME280_temperature;BME280_humidity;BME280_pressure;Samples;Min_cycle;Max_cycle;Signal;HPM_P1;HPM_P2
2023/03/25 00:00:52;;;;;;;20.52;3.30;;;9.80;99.90;;;;;;5092302;28;20115;-49
2023/03/25 00:03:18;;;;;;;16.15;2.92;;;9.70;99.90;;;;;;5091970;28;20373;-47
2023/03/25 00:05:44;;;;;;;17.50;3.33;;;9.60;99.90;;;;;;5091637;28;20052;-48
2023/03/25 00:08:10;;;;;;;21.88;3.20;;;9.80;99.90;;;;;;5092133;28;20104;-52
2023/03/25 00:10:35;;;;;;;16.42;3.38;;;9.70;99.90;;;;;;5092435;28;20044;-48
2023/03/25 00:13:04;;;;;;;18.35;3.38;;;9.80;99.90;;;;;;5092046;28;20036;-49
2023/03/25 00:15:32;;;;;;;15.07;2.97;;;9.60;99.90;;;;;;5089435;28;20082;-48
2023/03/25 00:18:00;;;;;;;14.93;3.13;;;9.60;99.90;;;;;;5081742;28;20040;-49
2023/03/25 00:20:26;;;;;;;16.42;3.38;;;9.60;99.90;;;;;;5077517;28;20075;-48
2023/03/25 00:22:53;;;;;;;17.73;3.42;;;9.80;99.90;;;;;;5071662;28;20488;-48
2023/03/25 00:25:19;;;;;;;15.20;2.30;;;9.80;99.90;;;;;;5071769;28;20449;-49
2023/03/25 00:27:47;;;;;;;18.63;3.15;;;9.70;99.90;;;;;;5071693;28;20135;-51
2023/03/25 00:30:15;;;;;;;20.52;3.03;;;9.80;99.90;;;;;;5071683;28;20412;-49
2023/03/25 00:32:44;;;;;;;14.48;2.95;;;9.70;99.90;;;;;;5070700;28;20502;-48
2023/03/25 00:35:12;;;;;;;20.52;4.53;;;9.70;99.90;;;;;;5071583;28;20044;-52
2023/03/25 00:37:38;;;;;;;21.08;3.25;;;9.70;99.90;;;;;;5071602;28;20489;-49
2023/03/25 00:40:04;;;;;;;21.13;3.95;;;9.80;99.90;;;;;;5072003;28;20041;-49
2023/03/25 00:42:30;;;;;;;17.08;3.55;;;9.60;99.90;;;;;;5070400;28;20088;-51
2023/03/25 00:44:56;;;;;;;23.35;4.13;;;9.60;99.90;;;;;;5071302;28;20072;-51
2023/03/25 00:47:21;;;;;;;24.48;4.60;;;9.50;99.90;;;;;;5071772;28;20098;-49
2023/03/25 00:49:48;;;;;;;19.75;3.30;;;9.60;99.90;;;;;;5085896;28;20484;-50
2023/03/25 00:52:14;;;;;;;20.85;2.85;;;9.60;99.90;;;;;;5091796;28;20036;-52
2023/03/25 00:54:40;;;;;;;19.35;3.03;;;9.70;99.90;;;;;;5091715;28;20419;-49
2023/03/25 00:57:06;;;;;;;16.52;3.90;;;9.60;99.90;;;;;;5091739;28;20402;-51
2023/03/25 00:59:32;;;;;;;21.98;3.58;;;9.60;99.90;;;;;;5091450;28;20036;-53
2023/03/25 01:01:57;;;;;;;17.55;2.88;;;9.50;99.90;;;;;;5091656;28;20070;-48
2023/03/25 01:04:23;;;;;;;19.02;3.70;;;9.50;99.90;;;;;;5091741;28;20032;-50
2023/03/25 01:06:52;;;;;;;22.25;3.67;;;9.30;99.90;;;;;;5091954;28;20123;-49
2023/03/25 01:09:18;;;;;;;22.30;3.28;;;9.30;99.90;;;;;;5091515;28;20476;-49
2023/03/25 01:11:46;;;;;;;22.08;3.75;;;9.20;99.90;;;;;;5091623;28;20479;-50
2023/03/25 01:14:16;;;;;;;28.90;5.18;;;9.10;99.90;;;;;;5091178;28;20085;-51
2023/03/25 01:16:42;;;;;;;22.65;3.80;;;9.00;99.90;;;;;;5092924;28;20396;-50
2023/03/25 01:19:09;;;;;;;25.42;3.60;;;9.20;99.90;;;;;;5093593;28;20472;-48
2023/03/25 01:21:35;;;;;;;22.63;3.65;;;9.10;99.90;;;;;;5095327;28;20040;-49
2023/03/25 01:24:03;;;;;;;27.50;3.42;;;9.20;99.90;;;;;;5094986;28;20468;-48
2023/03/25 01:26:29;;;;;;;25.20;4.47;;;8.70;99.90;;;;;;5095043;28;20048;-49
2023/03/25 01:28:54;;;;;;;27.05;3.60;;;9.20;99.90;;;;;;5094812;28;20135;-47
2023/03/25 01:31:21;;;;;;;18.55;3.00;;;9.20;99.90;;;;;;5095025;28;20119;-48
2023/03/25 01:33:48;;;;;;;23.08;3.38;;;8.90;99.90;;;;;;5093750;28;20044;-48
2023/03/25 01:36:14;;;;;;;19.27;3.72;;;9.20;99.90;;;;;;5094574;28;20111;-48
2023/03/25 01:38:40;;;;;;;22.75;4.90;;;8.80;99.90;;;;;;5095002;28;20100;-48
2023/03/25 01:41:07;;;;;;;23.38;3.90;;;8.80;99.90;;;;;;5095149;28;20046;-48
2023/03/25 01:43:33;;;;;;;26.95;4.05;;;9.10;99.90;;;;;;5094822;28;20105;-49
2023/03/25 01:45:59;;;;;;;21.13;4.03;;;8.90;99.90;;;;;;5094921;28;20039;-47
2023/03/25 01:48:35;;;;;;;23.05;4.43;;;9.20;99.90;;;;;;5093496;28;20047;-49
2023/03/25 01:51:17;;;;;;;19.77;4.00;;;8.90;99.90;;;;;;5082594;28;20135;-49
2023/03/25 01:53:43;;;;;;;18.35;3.53;;;8.70;99.90;;;;;;5094557;28;20143;-49
2023/03/25 01:56:12;;;;;;;23.70;4.57;;;9.10;99.90;;;;;;5094610;28;20040;-48
2023/03/25 01:58:39;;;;;;;19.83;4.80;;;9.00;99.90;;;;;;5094567;28;20035;-48
2023/03/25 02:01:06;;;;;;;21.40;3.25;;;8.70;99.90;;;;;;5094375;28;20032;-50
2023/03/25 02:03:35;;;;;;;24.45;4.65;;;8.70;99.90;;;;;;5094487;28;20048;-48
2023/03/25 02:06:08;;;;;;;23.83;4.55;;;9.00;99.90;;;;;;5094274;28;20044;-49
2023/03/25 02:08:38;;;;;;;24.27;4.45;;;9.00;99.90;;;;;;5094249;28;20043;-51
2023/03/25 02:11:08;;;;;;;26.73;4.32;;;9.00;99.90;;;;;;5094227;28;20145;-50
2023/03/25 02:13:37;;;;;;;28.88;4.68;;;9.00;99.90;;;;;;5094403;28;20083;-49
2023/03/25 02:16:15;;;;;;;24.45;3.38;;;8.90;99.90;;;;;;5094159;28;20093;-48
2023/03/25 02:18:46;;;;;;;29.95;5.40;;;8.90;99.90;;;;;;5094157;28;20047;-47
2023/03/25 02:21:27;;;;;;;26.40;4.20;;;8.70;99.90;;;;;;5094272;28;20078;-48
2023/03/25 02:24:16;;;;;;;28.13;4.18;;;9.00;99.90;;;;;;5093932;28;20050;-49
2023/03/25 02:27:00;;;;;;;26.98;5.63;;;9.00;99.90;;;;;;5093547;28;20040;-53
2023/03/25 02:29:48;;;;;;;28.23;4.75;;;8.70;99.90;;;;;;5092927;28;20048;-52
2023/03/25 02:32:51;;;;;;;25.55;5.93;;;8.60;99.90;;;;;;5093992;28;20396;-52
2023/03/25 02:35:22;;;;;;;28.42;5.80;;;9.00;99.90;;;;;;5093549;28;20058;-52
2023/03/25 02:38:10;;;;;;;24.58;3.88;;;8.60;99.90;;;;;;5093758;28;20036;-50
2023/03/25 02:40:51;;;;;;;25.55;4.63;;;9.00;99.90;;;;;;5093803;28;20044;-51
2023/03/25 02:43:29;;;;;;;25.50;5.07;;;8.60;99.90;;;;;;5093752;28;20044;-50
2023/03/25 02:46:00;;;;;;;26.10;3.88;;;8.70;99.90;;;;;;5093518;28;20048;-51
2023/03/25 02:48:56;;;;;;;27.88;4.80;;;9.10;99.90;;;;;;5093323;28;20044;-48
2023/03/25 02:51:30;;;;;;;21.52;4.18;;;8.90;99.90;;;;;;5093280;28;20496;-51
2023/03/25 02:54:00;;;;;;;22.70;4.25;;;9.10;99.90;;;;;;5091874;28;20427;-50
2023/03/25 02:56:28;;;;;;;24.80;4.57;;;9.10;99.90;;;;;;5093314;28;20055;-49
2023/03/25 02:58:55;;;;;;;25.20;4.43;;;9.20;99.90;;;;;;5093413;28;20050;-52
2023/03/25 03:01:25;;;;;;;29.55;5.05;;;8.90;99.90;;;;;;5093108;28;20040;-49
2023/03/25 03:03:55;;;;;;;29.15;5.45;;;9.00;99.90;;;;;;5093316;28;20411;-49
2023/03/25 03:06:23;;;;;;;24.05;4.63;;;8.80;99.90;;;;;;5093179;28;20450;-48
2023/03/25 03:09:01;;;;;;;28.02;5.18;;;8.80;99.90;;;;;;5091868;28;20039;-48
2023/03/25 03:11:29;;;;;;;28.00;5.57;;;9.10;99.90;;;;;;5093022;28;20215;-51
2023/03/25 03:14:09;;;;;;;27.75;6.38;;;8.90;99.90;;;;;;5093213;28;20379;-49
2023/03/25 03:17:30;;;;;;;26.98;5.93;;;9.00;99.90;;;;;;5092935;28;20480;-48
2023/03/25 03:19:59;;;;;;;22.33;5.20;;;8.90;99.90;;;;;;5050242;28;20048;-49
2023/03/25 03:22:41;;;;;;;25.73;5.60;;;8.80;99.90;;;;;;5050287;28;20045;-50
2023/03/25 03:25:31;;;;;;;30.95;4.72;;;8.90;99.90;;;;;;5080586;28;20059;-47
2023/03/25 03:28:08;;;;;;;22.05;5.25;;;9.00;99.90;;;;;;5092830;28;20495;-50
2023/03/25 03:30:48;;;;;;;23.27;5.13;;;9.00;99.90;;;;;;5092892;28;20196;-48
2023/03/25 03:33:31;;;;;;;23.15;3.90;;;8.80;99.90;;;;;;5091684;28;20047;-48
2023/03/25 03:36:01;;;;;;;22.05;4.80;;;8.80;99.90;;;;;;5092808;28;20063;-53
2023/03/25 03:38:33;;;;;;;28.30;3.83;;;8.90;99.90;;;;;;5092784;28;20400;-49
2023/03/25 03:41:00;;;;;;;;;;;9.00;99.90;;;;;;5092882;28;20044;-49
2023/03/25 03:43:46;;;;;;;28.05;4.38;;;9.00;99.90;;;;;;5092620;28;19923;-53
2023/03/25 03:46:19;;;;;;;33.47;4.25;;;9.00;99.90;;;;;;5091880;28;20453;-51
2023/03/25 03:48:49;;;;;;;22.00;3.80;;;9.20;99.90;;;;;;5092265;28;20511;-52
2023/03/25 03:51:18;;;;;;;22.83;4.80;;;8.80;99.90;;;;;;5092240;28;20483;-48
2023/03/25 03:53:52;;;;;;;20.88;3.60;;;9.10;99.90;;;;;;5092543;28;20031;-49
2023/03/25 03:56:22;;;;;;;24.48;4.82;;;8.70;99.90;;;;;;5092253;28;20050;-48
2023/03/25 03:58:52;;;;;;;31.30;7.35;;;8.60;99.90;;;;;;5092240;28;20032;-48
2023/03/25 04:01:44;;;;;;;25.55;3.92;;;9.10;99.90;;;;;;5092250;28;20516;-51
2023/03/25 04:04:19;;;;;;;21.92;4.35;;;9.00;99.90;;;;;;5092361;28;20092;-49
2023/03/25 04:07:03;;;;;;;27.38;4.00;;;9.00;99.90;;;;;;5092627;28;20133;-49
2023/03/25 04:09:39;;;;;;;24.83;3.97;;;9.00;99.90;;;;;;5092546;28;20035;-48
2023/03/25 04:12:16;;;;;;;29.42;5.05;;;8.60;99.90;;;;;;5092163;28;20044;-47
2023/03/25 04:14:42;;;;;;;22.77;4.85;;;8.50;99.90;;;;;;5090858;28;20052;-48
2023/03/25 04:17:09;;;;;;;22.30;3.67;;;9.00;99.90;;;;;;5091986;28;20089;-48
2023/03/25 04:19:34;;;;;;;22.98;3.97;;;9.00;99.90;;;;;;5091965;28;20040;-47
2023/03/25 04:22:01;;;;;;;25.90;4.50;;;9.00;99.90;;;;;;5091917;28;20519;-50
2023/03/25 04:24:31;;;;;;;25.20;3.38;;;9.00;99.90;;;;;;5090807;28;20040;-49
2023/03/25 04:27:03;;;;;;;23.33;5.68;;;8.90;99.90;;;;;;5091866;28;20400;-51
2023/03/25 04:29:30;;;;;;;21.88;4.65;;;9.00;99.90;;;;;;5082265;28;20052;-52
2023/03/25 04:31:56;;;;;;;25.75;4.78;;;9.10;99.90;;;;;;5078899;28;20048;-50
2023/03/25 04:34:22;;;;;;;28.80;3.83;;;8.70;99.90;;;;;;5088967;28;20610;-49
2023/03/25 04:36:51;;;;;;;25.10;4.70;;;9.10;99.90;;;;;;5091565;28;20123;-49
2023/03/25 04:39:21;;;;;;;27.48;4.95;;;8.90;99.90;;;;;;5092014;28;20051;-48
2023/03/25 04:41:52;;;;;;;22.85;3.75;;;9.10;99.90;;;;;;5091820;28;20044;-50
2023/03/25 04:44:20;;;;;;;23.70;3.97;;;9.00;99.90;;;;;;5090762;28;20404;-48
2023/03/25 04:46:47;;;;;;;25.52;4.57;;;8.80;99.90;;;;;;5091627;28;20270;-51
2023/03/25 04:49:19;;;;;;;25.85;4.43;;;9.00;99.90;;;;;;5090102;28;20036;-51
2023/03/25 04:51:48;;;;;;;26.00;4.43;;;8.80;99.90;;;;;;5093346;28;20051;-51
2023/03/25 04:54:14;;;;;;;21.52;5.13;;;9.10;99.90;;;;;;5094515;28;20115;-50
2023/03/25 04:56:40;;;;;;;25.65;4.47;;;8.70;99.90;;;;;;5095796;28;20093;-50
2023/03/25 04:59:07;;;;;;;26.17;4.47;;;9.10;99.90;;;;;;5095526;28;20487;-48
2023/03/25 05:01:36;;;;;;;21.88;4.45;;;8.90;99.90;;;;;;5095667;28;20040;-48
2023/03/25 05:04:04;;;;;;;27.25;5.10;;;8.80;99.90;;;;;;5095958;28;20043;-47
2023/03/25 05:06:34;;;;;;;25.98;4.50;;;8.80;99.90;;;;;;5095661;28;20080;-47
2023/03/25 05:09:03;;;;;;;25.33;4.20;;;9.10;99.90;;;;;;5095434;28;20087;-48
2023/03/25 05:11:29;;;;;;;21.95;3.83;;;8.80;99.90;;;;;;5095335;28;20032;-48
2023/03/25 05:13:55;;;;;;;21.70;3.88;;;8.90;99.90;;;;;;5095151;28;20495;-48
2023/03/25 05:16:21;;;;;;;23.42;4.10;;;9.00;99.90;;;;;;5095569;28;20115;-47
2023/03/25 05:18:47;;;;;;;23.27;3.92;;;9.00;99.90;;;;;;5095313;28;20040;-49
2023/03/25 05:21:12;;;;;;;27.52;5.03;;;9.10;99.90;;;;;;5095233;28;20399;-48
2023/03/25 05:23:38;;;;;;;23.83;4.75;;;8.80;99.90;;;;;;5095135;28;20036;-49
2023/03/25 05:26:05;;;;;;;21.67;4.50;;;8.70;99.90;;;;;;5095160;28;20039;-48
2023/03/25 05:28:30;;;;;;;22.17;4.07;;;8.70;99.90;;;;;;5093606;28;20123;-48
2023/03/25 05:30:56;;;;;;;25.08;4.22;;;8.80;99.90;;;;;;5093394;28;20118;-51
2023/03/25 05:33:22;;;;;;;22.98;4.53;;;8.70;99.90;;;;;;5095064;28;20039;-50
2023/03/25 05:35:48;;;;;;;24.65;5.85;;;8.70;99.90;;;;;;5094968;28;20040;-49
2023/03/25 05:38:17;;;;;;;24.65;5.03;;;9.00;99.90;;;;;;5094935;28;20036;-48
2023/03/25 05:40:45;;;;;;;23.05;4.50;;;9.00;99.90;;;;;;5093220;28;20106;-48
2023/03/25 05:43:11;;;;;;;24.27;4.35;;;8.80;99.90;;;;;;5093508;28;20125;-53
2023/03/25 05:45:37;;;;;;;28.13;5.50;;;8.70;99.90;;;;;;5094991;28;20043;-48
2023/03/25 05:48:03;;;;;;;29.17;5.13;;;8.70;99.90;;;;;;5094897;28;20040;-51
2023/03/25 05:50:30;;;;;;;25.25;3.55;;;9.00;99.90;;;;;;5092990;28;20040;-51
2023/03/25 05:52:56;;;;;;;31.27;4.80;;;8.80;99.90;;;;;;5094727;28;20043;-47
2023/03/25 05:55:22;;;;;;;27.50;5.88;;;8.70;99.90;;;;;;5094560;28;20039;-52
2023/03/25 05:57:48;;;;;;;26.05;4.07;;;8.90;99.90;;;;;;5094756;28;20036;-50
2023/03/25 06:00:20;;;;;;;26.58;5.32;;;8.90;99.90;;;;;;5094624;28;20115;-50
2023/03/25 06:02:47;;;;;;;19.97;5.03;;;8.70;99.90;;;;;;5093716;28;20044;-51
2023/03/25 06:05:15;;;;;;;29.95;5.20;;;8.90;99.90;;;;;;5092907;28;20271;-52
2023/03/25 06:07:46;;;;;;;26.10;4.00;;;8.70;99.90;;;;;;5094317;28;20044;-50
2023/03/25 06:10:15;;;;;;;26.83;4.38;;;9.00;99.90;;;;;;5092876;28;20495;-47
2023/03/25 06:12:42;;;;;;;26.42;4.10;;;9.00;99.90;;;;;;5094393;28;20036;-52
2023/03/25 06:15:10;;;;;;;28.98;4.55;;;9.00;99.90;;;;;;5094338;28;20058;-49
2023/03/25 06:17:39;;;;;;;21.85;3.83;;;8.70;99.90;;;;;;5090652;28;20042;-49
2023/03/25 06:20:12;;;;;;;23.60;4.60;;;8.80;99.90;;;;;;5082620;28;20487;-49
2023/03/25 06:22:41;;;;;;;26.85;4.43;;;8.70;99.90;;;;;;5086102;28;20043;-48
2023/03/25 06:25:08;;;;;;;27.88;4.28;;;8.90;99.90;;;;;;5094003;28;20032;-50
2023/03/25 06:27:39;;;;;;;20.52;4.13;;;8.90;99.90;;;;;;5093854;28;20132;-50
2023/03/25 06:30:08;;;;;;;28.52;5.22;;;8.90;99.90;;;;;;5093576;28;20059;-50
2023/03/25 06:32:34;;;;;;;28.30;4.68;;;9.00;99.90;;;;;;5093805;28;20040;-48
2023/03/25 06:35:00;;;;;;;22.77;4.32;;;8.60;99.90;;;;;;5093660;28;20480;-52
2023/03/25 06:37:27;;;;;;;27.58;5.28;;;8.60;99.90;;;;;;5093536;28;20043;-50
2023/03/25 06:39:55;;;;;;;27.80;5.15;;;8.70;99.90;;;;;;5092363;28;20051;-48
2023/03/25 06:42:27;;;;;;;27.88;4.75;;;8.60;99.90;;;;;;5093479;28;20048;-51
2023/03/25 06:44:54;;;;;;;30.27;4.60;;;8.70;99.90;;;;;;5093437;28;20449;-49
2023/03/25 06:47:20;;;;;;;25.98;5.00;;;8.60;99.90;;;;;;5093316;28;20044;-48
2023/03/25 06:49:46;;;;;;;26.27;4.68;;;8.60;99.90;;;;;;5093227;28;20098;-47
2023/03/25 06:52:12;;;;;;;22.20;4.47;;;8.70;99.90;;;;;;5093461;28;20071;-48
2023/03/25 06:54:38;;;;;;;25.33;4.20;;;8.70;99.90;;;;;;5093284;28;20032;-48
2023/03/25 06:57:05;;;;;;;23.23;4.10;;;8.70;99.90;;;;;;5093417;28;20035;-47
2023/03/25 06:59:30;;;;;;;23.17;4.15;;;8.70;99.90;;;;;;5092625;28;20035;-50
2023/03/25 07:01:56;;;;;;;19.50;3.10;;;8.80;99.90;;;;;;5091578;28;20039;-49
2023/03/25 07:04:22;;;;;;;23.35;4.05;;;8.80;99.90;;;;;;5091676;28;20040;-51
2023/03/25 07:06:48;;;;;;;25.73;5.25;;;8.90;99.90;;;;;;5091800;28;20399;-48
2023/03/25 07:09:14;;;;;;;23.27;3.83;;;8.90;99.90;;;;;;5087653;28;20539;-47
2023/03/25 07:11:40;;;;;;;21.67;4.63;;;8.90;99.90;;;;;;5081689;28;20044;-50
2023/03/25 07:14:06;;;;;;;18.02;3.55;;;9.00;99.90;;;;;;5081192;28;20047;-51
2023/03/25 07:16:32;;;;;;;21.95;4.50;;;8.70;99.90;;;;;;5081845;28;20047;-48
2023/03/25 07:18:58;;;;;;;17.42;3.20;;;9.00;99.90;;;;;;5080853;28;20098;-48
2023/03/25 07:21:25;;;;;;;18.75;3.00;;;8.90;99.90;;;;;;5079807;28;20488;-49
2023/03/25 07:23:50;;;;;;;17.17;2.58;;;8.80;99.90;;;;;;5081239;28;20040;-50
2023/03/25 07:26:17;;;;;;;12.20;2.40;;;8.60;99.90;;;;;;5091113;28;20036;-48
2023/03/25 07:28:43;;;;;;;11.80;2.20;;;8.30;99.90;;;;;;5090953;28;20105;-48
2023/03/25 07:31:13;;;;;;;20.02;2.92;;;8.20;99.90;;;;;;5090922;28;20101;-47
2023/03/25 07:33:40;;;;;;;19.15;3.47;;;8.10;99.90;;;;;;5091422;28;20373;-47
2023/03/25 07:36:07;;;;;;;19.52;3.38;;;8.00;99.90;;;;;;5089681;28;20048;-52
2023/03/25 07:38:34;;;;;;;23.02;3.95;;;8.40;99.90;;;;;;5091077;28;20392;-53
2023/03/25 07:41:13;;;;;;;23.08;3.88;;;8.10;99.90;;;;;;5090774;28;20118;-51
2023/03/25 07:43:38;;;;;;;23.55;3.70;;;8.30;99.90;;;;;;5090851;28;20048;-48
2023/03/25 07:46:05;;;;;;;23.30;4.75;;;8.20;99.90;;;;;;5089776;28;20047;-53
2023/03/25 07:48:31;;;;;;;21.50;3.40;;;8.40;99.90;;;;;;5090403;28;20097;-48
2023/03/25 07:50:56;;;;;;;21.55;3.38;;;8.50;99.90;;;;;;5090777;28;20442;-50
2023/03/25 07:53:22;;;;;;;17.88;2.80;;;8.20;99.90;;;;;;5090953;28;20043;-50
2023/03/25 07:55:51;;;;;;;15.85;2.92;;;8.30;99.90;;;;;;5090806;28;20028;-49
2023/03/25 07:58:17;;;;;;;18.48;3.60;;;8.60;99.90;;;;;;5090757;28;20395;-48
2023/03/25 08:00:43;;;;;;;20.65;3.28;;;8.30;99.90;;;;;;5090926;28;20058;-47
2023/03/25 08:03:11;;;;;;;14.30;2.25;;;8.80;99.90;;;;;;5090763;28;20036;-47
2023/03/25 08:05:41;;;;;;;15.98;3.13;;;8.30;99.90;;;;;;5090437;28;20039;-47
2023/03/25 08:08:07;;;;;;;17.00;2.38;;;8.60;99.90;;;;;;5090578;28;20471;-52
2023/03/25 08:10:33;;;;;;;20.42;3.17;;;8.30;99.90;;;;;;5090106;28;20127;-52
2023/03/25 08:12:59;;;;;;;13.65;2.80;;;8.30;99.90;;;;;;5090466;28;20036;-49
2023/03/25 08:15:25;;;;;;;18.10;2.92;;;8.20;99.90;;;;;;5072162;28;20066;-48
2023/03/25 08:17:51;;;;;;;21.02;3.97;;;8.80;99.90;;;;;;5072582;28;20139;-49
2023/03/25 08:20:17;;;;;;;20.65;2.80;;;8.80;99.90;;;;;;5072152;28;20553;-52
2023/03/25 08:22:46;;;;;;;19.25;4.35;;;8.50;99.90;;;;;;5090502;28;20123;-51
2023/03/25 08:25:13;;;;;;;19.02;3.58;;;8.20;99.90;;;;;;5090671;28;20614;-50
2023/03/25 08:27:39;;;;;;;25.13;4.18;;;8.20;99.90;;;;;;5089402;28;20052;-53
2023/03/25 08:30:09;;;;;;;16.38;3.08;;;8.30;99.90;;;;;;5089112;28;20097;-48
2023/03/25 08:32:37;;;;;;;16.83;3.72;;;8.20;99.90;;;;;;5090414;28;20040;-52
2023/03/25 08:35:06;;;;;;;20.13;3.45;;;8.60;99.90;;;;;;5090351;28;20040;-52
2023/03/25 08:37:36;;;;;;;18.48;4.47;;;8.20;99.90;;;;;;5090208;28;20101;-49
2023/03/25 08:40:07;;;;;;;21.90;3.30;;;8.20;99.90;;;;;;5090581;28;20043;-47
2023/03/25 08:42:34;;;;;;;19.92;4.03;;;8.80;99.90;;;;;;5090058;28;20039;-47
2023/03/25 08:45:00;;;;;;;19.25;3.08;;;8.70;99.90;;;;;;5088737;28;20051;-51
2023/03/25 08:47:25;;;;;;;21.40;3.53;;;8.60;99.90;;;;;;5070002;28;20041;-50
2023/03/25 08:49:51;;;;;;;19.63;3.38;;;8.90;99.90;;;;;;5084789;28;20055;-49
2023/03/25 08:52:17;;;;;;;21.38;3.60;;;9.30;99.90;;;;;;5089960;28;20040;-47
2023/03/25 08:54:42;;;;;;;18.77;3.30;;;9.10;99.90;;;;;;5082675;28;20033;-47
2023/03/25 08:57:08;;;;;;;17.23;2.47;;;9.20;99.90;;;;;;5077213;28;20047;-49
2023/03/25 08:59:34;;;;;;;15.43;3.45;;;9.20;99.90;;;;;;5072299;28;20512;-47
2023/03/25 09:01:59;;;;;;;25.88;3.70;;;9.20;99.90;;;;;;5068507;28;20050;-51
2023/03/25 09:04:25;;;;;;;19.85;3.25;;;9.40;99.90;;;;;;5075329;28;20024;-51
2023/03/25 09:06:51;;;;;;;20.77;3.58;;;9.40;99.90;;;;;;5079283;28;20074;-50
2023/03/25 09:09:17;;;;;;;21.52;3.55;;;9.50;99.90;;;;;;5084176;28;20063;-47
2023/03/25 09:11:42;;;;;;;16.50;3.63;;;9.60;99.90;;;;;;5089929;28;20056;-50
2023/03/25 09:14:09;;;;;;;13.43;2.67;;;9.60;99.90;;;;;;5089970;28;20032;-50
2023/03/25 09:16:34;;;;;;;20.67;3.10;;;9.80;99.90;;;;;;5090203;28;20036;-49
2023/03/25 09:19:01;;;;;;;17.55;2.95;;;10.00;99.90;;;;;;5089931;28;20379;-51
2023/03/25 09:21:27;;;;;;;22.60;2.92;;;9.90;99.90;;;;;;5089715;28;20071;-49
2023/03/25 09:23:52;;;;;;;14.23;2.60;;;9.70;99.90;;;;;;5090125;28;20553;-48
2023/03/25 09:26:18;;;;;;;25.15;4.18;;;9.70;99.90;;;;;;5089784;28;20044;-48
2023/03/25 09:28:44;;;;;;;15.90;2.97;;;10.00;99.90;;;;;;5089522;28;20056;-49
2023/03/25 09:31:10;;;;;;;16.15;3.95;;;9.80;99.90;;;;;;5077946;28;20102;-47
2023/03/25 09:33:36;;;;;;;17.25;3.08;;;9.90;99.90;;;;;;5084986;28;20040;-49
2023/03/25 09:36:02;;;;;;;23.23;3.45;;;9.90;99.90;;;;;;5089654;28;20040;-48
2023/03/25 09:38:28;;;;;;;20.15;3.60;;;9.80;99.90;;;;;;5091843;28;20274;-49
2023/03/25 09:40:54;;;;;;;19.83;2.60;;;9.80;99.90;;;;;;5093040;28;20047;-48
2023/03/25 09:43:32;;;;;;;20.77;4.18;;;10.10;99.90;;;;;;5093797;28;20051;-49
2023/03/25 09:45:59;;;;;;;15.20;2.60;;;10.00;99.90;;;;;;5094499;28;20140;-50
2023/03/25 09:48:41;;;;;;;18.55;3.08;;;10.30;99.90;;;;;;5093736;28;20107;-58
2023/03/25 09:51:21;;;;;;;18.52;3.17;;;10.00;99.90;;;;;;5094119;28;20067;-59
2023/03/25 09:54:16;;;;;;;15.05;3.10;;;9.90;99.90;;;;;;5093544;28;20040;-59
2023/03/25 09:56:43;;;;;;;21.25;3.53;;;10.10;99.90;;;;;;5092832;28;20606;-59
2023/03/25 09:59:20;;;;;;;21.38;3.22;;;9.90;99.90;;;;;;5094163;28;20051;-58
2023/03/25 10:01:57;;;;;;;15.30;3.63;;;9.90;99.90;;;;;;5093438;28;20434;-59
2023/03/25 10:04:29;;;;;;;19.90;3.00;;;9.70;99.90;;;;;;5092849;28;20050;-58
2023/03/25 10:07:14;;;;;;;16.40;3.55;;;9.20;99.90;;;;;;5093678;28;20522;-59
2023/03/25 10:09:48;;;;;;;14.60;2.50;;;9.60;99.90;;;;;;5093967;28;20093;-58
2023/03/25 10:12:28;;;;;;;17.15;2.63;;;9.80;99.90;;;;;;5094087;28;20037;-57
2023/03/25 10:15:25;;;;;;;21.75;2.92;;;9.60;99.90;;;;;;5092598;28;20377;-58
2023/03/25 10:17:57;;;;;;;22.92;3.30;;;9.90;99.90;;;;;;5093680;28;20039;-58
2023/03/25 10:20:46;;;;;;;19.98;3.50;;;10.00;99.90;;;;;;5093736;28;20047;-58
2023/03/25 10:23:31;;;;;;;18.20;3.35;;;10.00;99.90;;;;;;5093230;28;20488;-58
2023/03/25 10:26:03;;;;;;;14.02;3.22;;;10.10;99.90;;;;;;5093936;28;20516;-59
2023/03/25 10:28:38;;;;;;;21.83;4.13;;;10.10;99.90;;;;;;5093029;28;20064;-59
2023/03/25 10:31:06;;;;;;;19.30;3.30;;;9.80;99.90;;;;;;5093752;28;20052;-59
2023/03/25 10:33:38;;;;;;;16.63;2.90;;;10.00;99.90;;;;;;5093482;28;20407;-59
2023/03/25 10:36:06;;;;;;;;;;;10.20;99.90;;;;;;5093822;28;20032;-58
2023/03/25 10:38:35;;;;;;;16.58;3.40;;;10.00;99.90;;;;;;5091944;28;20013;-59
2023/03/25 10:41:28;;;;;;;17.83;2.72;;;10.10;99.90;;;;;;5093708;28;20035;-60
2023/03/25 10:43:54;;;;;;;22.63;3.50;;;10.10;99.90;;;;;;5093508;28;20510;-59
2023/03/25 10:46:50;;;;;;;19.98;3.15;;;10.20;99.90;;;;;;5092482;28;20044;-59
2023/03/25 10:49:23;;;;;;;18.98;3.88;;;10.20;99.90;;;;;;5088509;28;20495;-60
2023/03/25 10:51:55;;;;;;;19.45;2.83;;;10.30;99.90;;;;;;5093442;28;20051;-58
2023/03/25 10:54:25;;;;;;;18.55;3.85;;;10.30;99.90;;;;;;5093424;28;20042;-56
2023/03/25 10:56:53;;;;;;;15.38;3.13;;;10.40;99.90;;;;;;5093492;28;20036;-57
2023/03/25 10:59:29;;;;;;;16.00;2.50;;;10.50;99.90;;;;;;5093171;28;20427;-61
2023/03/25 11:01:56;;;;;;;18.88;4.05;;;10.60;99.90;;;;;;5093168;28;20040;-57
2023/03/25 11:04:34;;;;;;;14.38;2.25;;;10.40;99.90;;;;;;5093214;28;20399;-58
2023/03/25 11:07:04;;;;;;;11.63;2.35;;;10.50;99.90;;;;;;5081982;28;20044;-59
2023/03/25 11:09:31;;;;;;;17.90;3.22;;;10.60;99.90;;;;;;5092868;28;20036;-57
2023/03/25 11:12:01;;;;;;;12.68;2.60;;;10.70;99.90;;;;;;5092849;28;20119;-57
2023/03/25 11:14:29;;;;;;;10.80;2.58;;;10.90;99.90;;;;;;5091573;28;20117;-58
2023/03/25 11:17:04;;;;;;;12.15;2.33;;;10.70;99.90;;;;;;5092841;28;20146;-58
2023/03/25 11:19:39;;;;;;;16.85;2.95;;;10.60;99.90;;;;;;5091509;28;20429;-58
2023/03/25 11:22:15;;;;;;;11.15;2.40;;;10.70;99.90;;;;;;5091788;28;20051;-59
2023/03/25 11:24:45;;;;;;;10.60;2.45;;;10.60;99.90;;;;;;5092460;28;20039;-57
2023/03/25 11:27:27;;;;;;;12.48;2.30;;;10.80;99.90;;;;;;5092735;28;20044;-58
2023/03/25 11:30:00;;;;;;;12.98;2.90;;;11.00;99.90;;;;;;5092142;28;20083;-58
2023/03/25 11:32:34;;;;;;;14.93;2.28;;;11.00;99.90;;;;;;5092190;28;20421;-57
2023/03/25 11:35:06;;;;;;;11.27;2.30;;;11.20;99.90;;;;;;5092264;28;20032;-58
2023/03/25 11:37:41;;;;;;;11.73;1.83;;;11.30;99.90;;;;;;5092684;28;20040;-58
2023/03/25 11:40:15;;;;;;;12.75;2.78;;;11.20;99.90;;;;;;5091313;28;20224;-58
2023/03/25 11:42:50;;;;;;;12.70;2.45;;;11.10;99.90;;;;;;5091000;28;20051;-58
2023/03/25 11:45:21;;;;;;;15.07;2.25;;;11.20;99.90;;;;;;5092169;28;20392;-58
2023/03/25 11:47:48;;;;;;;17.05;3.28;;;11.60;99.90;;;;;;5092337;28;20399;-59
2023/03/25 11:50:25;;;;;;;19.35;2.40;;;11.60;99.90;;;;;;5090542;28;20565;-59
2023/03/25 11:52:58;;;;;;;14.80;2.10;;;11.50;99.90;;;;;;5087194;28;20036;-59
2023/03/25 11:55:45;;;;;;;10.60;1.83;;;11.40;99.90;;;;;;5064365;28;20040;-59
2023/03/25 11:58:17;;;;;;;12.13;2.00;;;11.10;99.90;;;;;;5081641;28;20039;-58
2023/03/25 12:00:52;;;;;;;9.90;1.60;;;11.20;99.90;;;;;;5079804;28;20135;-58
2023/03/25 12:03:25;;;;;;;13.25;2.40;;;11.00;99.90;;;;;;5080677;28;20044;-59
2023/03/25 12:06:06;;;;;;;14.20;2.85;;;10.70;99.90;;;;;;5080110;28;20048;-58
2023/03/25 12:08:50;;;;;;;12.45;2.25;;;10.80;99.90;;;;;;5080482;28;20036;-57
2023/03/25 12:11:23;;;;;;;11.55;1.92;;;10.80;99.90;;;;;;5078712;28;20062;-59
2023/03/25 12:13:52;;;;;;;14.80;2.70;;;10.90;99.90;;;;;;5079777;28;20036;-59
2023/03/25 12:16:28;;;;;;;11.25;2.47;;;11.00;99.90;;;;;;5085767;28;20484;-59
2023/03/25 12:19:10;;;;;;;11.15;2.20;;;11.00;99.90;;;;;;5071511;28;20127;-58
2023/03/25 12:21:49;;;;;;;15.32;2.45;;;10.90;99.90;;;;;;5070418;28;20062;-58
2023/03/25 12:24:33;;;;;;;12.98;3.13;;;10.90;99.90;;;;;;5071511;28;20044;-58
2023/03/25 12:27:16;;;;;;;12.98;2.08;;;11.10;99.90;;;;;;5071549;28;20049;-58
2023/03/25 12:29:50;;;;;;;14.15;2.90;;;10.90;99.90;;;;;;5071409;28;20080;-58
2023/03/25 12:32:41;;;;;;;8.82;2.00;;;10.80;99.90;;;;;;5071706;28;20510;-58
2023/03/25 12:35:29;;;;;;;11.80;2.10;;;10.90;99.90;;;;;;5071577;28;20154;-58
2023/03/25 12:38:15;;;;;;;13.27;2.10;;;10.90;99.90;;;;;;5071812;28;20040;-59
2023/03/25 12:40:50;;;;;;;14.32;2.58;;;10.90;99.90;;;;;;5071561;28;20105;-58
2023/03/25 12:43:30;;;;;;;12.70;2.05;;;10.90;99.90;;;;;;5071442;28;20511;-58
2023/03/25 12:46:15;;;;;;;12.85;3.00;;;11.00;99.90;;;;;;5071326;28;20044;-59
2023/03/25 12:49:15;;;;;;;10.32;2.17;;;10.70;99.90;;;;;;5076781;28;20127;-58
2023/03/25 12:52:00;;;;;;;12.07;1.95;;;10.20;99.90;;;;;;5091648;28;20035;-59
2023/03/25 12:54:36;;;;;;;13.43;2.75;;;10.10;99.90;;;;;;5091673;28;20042;-58
2023/03/25 12:57:26;;;;;;;12.38;1.88;;;10.10;99.90;;;;;;5091776;28;20396;-59
2023/03/25 13:00:08;;;;;;;12.52;2.17;;;9.80;99.90;;;;;;5091489;28;20052;-59
2023/03/25 13:03:02;;;;;;;14.90;3.45;;;10.00;99.90;;;;;;5091325;28;20036;-59
2023/03/25 13:05:46;;;;;;;15.35;2.42;;;9.80;99.90;;;;;;5088005;28;20070;-58